sensor_id;sensor_type;location;lat;lon;timestamp;temperature;humidity
1994;DHT22;998;49.906;10.908;2022-07-29T00:00:38;23.60;64.10
1994;DHT22;998;49.906;10.908;2022-07-29T00:03:05;23.60;63.80
1994;DHT22;998;49.906;10.908;2022-07-29T00:05:32;23.60;64.20
1994;DHT22;998;49.906;10.908;2022-07-29T00:07:59;23.70;64.50
1994;DHT22;998;49.906;10.908;2022-07-29T00:10:27;23.70;64.30
1994;DHT22;998;49.906;10.908;2022-07-29T00:12:54;23.60;64.50
1994;DHT22;998;49.906;10.908;2022-07-29T00:15:21;23.60;64.50
1994;DHT22;998;49.906;10.908;2022-07-29T00:17:48;23.50;64.70
1994;DHT22;998;49.906;10.908;2022-07-29T00:20:14;23.50;64.90
1994;DHT22;998;49.906;10.908;2022-07-29T00:22:41;23.50;64.90
1994;DHT22;998;49.906;10.908;2022-07-29T00:25:09;23.50;65.40
1994;DHT22;998;49.906;10.908;2022-07-29T00:27:37;23.50;65.10
1994;DHT22;998;49.906;10.908;2022-07-29T00:30:05;23.50;65.40
1994;DHT22;998;49.906;10.908;2022-07-29T00:32:33;23.40;65.20
1994;DHT22;998;49.906;10.908;2022-07-29T00:35:00;23.40;65.50
1994;DHT22;998;49.906;10.908;2022-07-29T00:37:44;23.50;65.90
1994;DHT22;998;49.906;10.908;2022-07-29T00:40:11;23.40;65.60
1994;DHT22;998;49.906;10.908;2022-07-29T00:42:43;23.50;65.70
1994;DHT22;998;49.906;10.908;2022-07-29T00:45:11;23.50;65.90
1994;DHT22;998;49.906;10.908;2022-07-29T00:57:58;23.30;66.00
1994;DHT22;998;49.906;10.908;2022-07-29T01:07:37;23.30;66.60
1994;DHT22;998;49.906;10.908;2022-07-29T01:10:22;23.20;66.40
1994;DHT22;998;49.906;10.908;2022-07-29T01:12:57;23.10;66.80
1994;DHT22;998;49.906;10.908;2022-07-29T01:15:46;23.10;66.50
1994;DHT22;998;49.906;10.908;2022-07-29T01:25:58;23.10;66.40
1994;DHT22;998;49.906;10.908;2022-07-29T01:32:19;23.10;67.00
1994;DHT22;998;49.906;10.908;2022-07-29T01:35:20;23.00;66.30
1994;DHT22;998;49.906;10.908;2022-07-29T01:38:15;23.10;66.60
1994;DHT22;998;49.906;10.908;2022-07-29T01:41:24;23.10;66.80
1994;DHT22;998;49.906;10.908;2022-07-29T01:57:57;22.90;67.00
1994;DHT22;998;49.906;10.908;2022-07-29T02:02:13;23.00;67.60
1994;DHT22;998;49.906;10.908;2022-07-29T02:04:40;23.00;67.70
1994;DHT22;998;49.906;10.908;2022-07-29T02:07:44;23.10;67.00
1994;DHT22;998;49.906;10.908;2022-07-29T02:10:17;23.20;67.00
1994;DHT22;998;49.906;10.908;2022-07-29T02:13:23;22.70;68.60
1994;DHT22;998;49.906;10.908;2022-07-29T02:16:06;22.60;69.20
1994;DHT22;998;49.906;10.908;2022-07-29T02:18:55;22.70;69.10
1994;DHT22;998;49.906;10.908;2022-07-29T02:21:32;22.60;68.90
1994;DHT22;998;49.906;10.908;2022-07-29T02:24:04;22.70;68.80
1994;DHT22;998;49.906;10.908;2022-07-29T02:26:57;22.80;68.10
1994;DHT22;998;49.906;10.908;2022-07-29T02:29:58;22.80;68.00
1994;DHT22;998;49.906;10.908;2022-07-29T02:32:38;22.70;68.30
1994;DHT22;998;49.906;10.908;2022-07-29T02:35:20;22.60;68.60
1994;DHT22;998;49.906;10.908;2022-07-29T02:38:24;22.40;68.80
1994;DHT22;998;49.906;10.908;2022-07-29T02:41:31;22.40;69.20
1994;DHT22;998;49.906;10.908;2022-07-29T02:44:18;22.10;69.90
1994;DHT22;998;49.906;10.908;2022-07-29T02:47:04;22.00;70.40
1994;DHT22;998;49.906;10.908;2022-07-29T02:49:37;22.30;70.00
1994;DHT22;998;49.906;10.908;2022-07-29T02:52:54;22.40;69.40
1994;DHT22;998;49.906;10.908;2022-07-29T02:55:40;22.40;69.00
1994;DHT22;998;49.906;10.908;2022-07-29T02:58:14;22.20;69.40
1994;DHT22;998;49.906;10.908;2022-07-29T03:01:03;22.30;69.60
1994;DHT22;998;49.906;10.908;2022-07-29T03:03:40;22.40;70.40
1994;DHT22;998;49.906;10.908;2022-07-29T03:06:27;22.40;69.80
1994;DHT22;998;49.906;10.908;2022-07-29T03:09:48;22.30;70.10
1994;DHT22;998;49.906;10.908;2022-07-29T03:12:26;22.10;71.20
1994;DHT22;998;49.906;10.908;2022-07-29T03:15:05;22.10;71.30
1994;DHT22;998;49.906;10.908;2022-07-29T03:17:43;22.10;71.30
1994;DHT22;998;49.906;10.908;2022-07-29T03:20:15;22.30;70.90
1994;DHT22;998;49.906;10.908;2022-07-29T03:22:47;22.30;71.50
1994;DHT22;998;49.906;10.908;2022-07-29T03:25:22;22.20;71.00
1994;DHT22;998;49.906;10.908;2022-07-29T03:28:00;22.20;70.80
1994;DHT22;998;49.906;10.908;2022-07-29T03:30:31;22.20;71.20
1994;DHT22;998;49.906;10.908;2022-07-29T03:33:04;22.10;71.60
1994;DHT22;998;49.906;10.908;2022-07-29T03:35:43;22.20;71.80
1994;DHT22;998;49.906;10.908;2022-07-29T03:38:16;22.10;71.00
1994;DHT22;998;49.906;10.908;2022-07-29T03:40:53;21.90;71.30
1994;DHT22;998;49.906;10.908;2022-07-29T03:43:23;21.70;71.40
1994;DHT22;998;49.906;10.908;2022-07-29T03:46:02;21.60;72.00
1994;DHT22;998;49.906;10.908;2022-07-29T03:48:48;21.50;72.40
1994;DHT22;998;49.906;10.908;2022-07-29T03:51:26;21.60;72.60
1994;DHT22;998;49.906;10.908;2022-07-29T03:57:33;21.90;71.60
1994;DHT22;998;49.906;10.908;2022-07-29T04:00:05;21.70;72.00
1994;DHT22;998;49.906;10.908;2022-07-29T04:02:38;21.50;73.10
1994;DHT22;998;49.906;10.908;2022-07-29T04:08:32;21.70;72.50
1994;DHT22;998;49.906;10.908;2022-07-29T04:10:59;21.90;72.00
1994;DHT22;998;49.906;10.908;2022-07-29T04:13:26;21.80;72.00
1994;DHT22;998;49.906;10.908;2022-07-29T04:15:53;21.70;72.60
1994;DHT22;998;49.906;10.908;2022-07-29T04:18:20;21.70;73.00
1994;DHT22;998;49.906;10.908;2022-07-29T04:20:47;21.70;73.10
1994;DHT22;998;49.906;10.908;2022-07-29T04:23:14;21.60;73.40
1994;DHT22;998;49.906;10.908;2022-07-29T04:25:42;21.40;74.50
1994;DHT22;998;49.906;10.908;2022-07-29T04:28:09;21.40;74.60
1994;DHT22;998;49.906;10.908;2022-07-29T04:30:37;21.30;75.60
1994;DHT22;998;49.906;10.908;2022-07-29T04:33:05;21.40;75.90
1994;DHT22;998;49.906;10.908;2022-07-29T04:35:35;21.30;75.40
1994;DHT22;998;49.906;10.908;2022-07-29T04:38:03;21.60;74.60
1994;DHT22;998;49.906;10.908;2022-07-29T04:40:30;21.60;74.20
1994;DHT22;998;49.906;10.908;2022-07-29T04:43:00;21.60;75.10
1994;DHT22;998;49.906;10.908;2022-07-29T04:45:27;21.50;75.70
1994;DHT22;998;49.906;10.908;2022-07-29T04:47:54;21.40;76.10
1994;DHT22;998;49.906;10.908;2022-07-29T04:50:21;21.50;76.00
1994;DHT22;998;49.906;10.908;2022-07-29T04:52:48;21.40;76.50
1994;DHT22;998;49.906;10.908;2022-07-29T04:55:15;21.40;76.80
1994;DHT22;998;49.906;10.908;2022-07-29T04:57:42;21.50;77.00
1994;DHT22;998;49.906;10.908;2022-07-29T05:00:11;21.60;76.50
1994;DHT22;998;49.906;10.908;2022-07-29T05:02:38;21.70;76.40
1994;DHT22;998;49.906;10.908;2022-07-29T05:05:06;21.70;76.30
1994;DHT22;998;49.906;10.908;2022-07-29T05:07:33;21.70;76.30
1994;DHT22;998;49.906;10.908;2022-07-29T05:10:00;21.40;77.10
1994;DHT22;998;49.906;10.908;2022-07-29T05:12:27;21.20;78.60
1994;DHT22;998;49.906;10.908;2022-07-29T05:14:54;21.10;79.10
1994;DHT22;998;49.906;10.908;2022-07-29T05:17:22;21.00;79.80
1994;DHT22;998;49.906;10.908;2022-07-29T05:19:49;21.20;80.00
1994;DHT22;998;49.906;10.908;2022-07-29T05:22:17;21.10;80.50
1994;DHT22;998;49.906;10.908;2022-07-29T05:24:44;21.30;80.10
1994;DHT22;998;49.906;10.908;2022-07-29T05:27:11;21.30;81.00
1994;DHT22;998;49.906;10.908;2022-07-29T05:29:37;21.50;79.70
1994;DHT22;998;49.906;10.908;2022-07-29T05:32:05;21.60;78.90
1994;DHT22;998;49.906;10.908;2022-07-29T05:34:33;21.70;78.70
1994;DHT22;998;49.906;10.908;2022-07-29T05:37:00;21.70;78.60
1994;DHT22;998;49.906;10.908;2022-07-29T05:39:27;21.60;79.00
1994;DHT22;998;49.906;10.908;2022-07-29T05:41:54;21.60;79.30
1994;DHT22;998;49.906;10.908;2022-07-29T05:44:21;21.50;79.60
1994;DHT22;998;49.906;10.908;2022-07-29T05:46:48;21.60;79.80
1994;DHT22;998;49.906;10.908;2022-07-29T05:49:15;21.60;79.60
1994;DHT22;998;49.906;10.908;2022-07-29T05:51:45;21.70;79.10
1994;DHT22;998;49.906;10.908;2022-07-29T05:54:13;21.80;78.60
1994;DHT22;998;49.906;10.908;2022-07-29T05:56:40;21.80;78.40
1994;DHT22;998;49.906;10.908;2022-07-29T05:59:07;21.80;78.00
1994;DHT22;998;49.906;10.908;2022-07-29T06:26:58;22.10;78.30
1994;DHT22;998;49.906;10.908;2022-07-29T06:43:31;21.90;80.10
1994;DHT22;998;49.906;10.908;2022-07-29T06:46:32;21.90;80.30
1994;DHT22;998;49.906;10.908;2022-07-29T06:49:17;22.00;79.70
1994;DHT22;998;49.906;10.908;2022-07-29T06:55:33;22.20;80.00
1994;DHT22;998;49.906;10.908;2022-07-29T07:02:10;22.20;79.10
1994;DHT22;998;49.906;10.908;2022-07-29T07:05:03;22.20;78.40
1994;DHT22;998;49.906;10.908;2022-07-29T07:07:54;22.20;77.40
1994;DHT22;998;49.906;10.908;2022-07-29T07:21:29;22.50;76.40
1994;DHT22;998;49.906;10.908;2022-07-29T07:24:36;22.50;76.00
1994;DHT22;998;49.906;10.908;2022-07-29T07:27:18;22.50;76.40
1994;DHT22;998;49.906;10.908;2022-07-29T07:30:11;22.60;77.30
1994;DHT22;998;49.906;10.908;2022-07-29T07:33:27;22.60;76.70
1994;DHT22;998;49.906;10.908;2022-07-29T07:43:32;22.80;77.60
1994;DHT22;998;49.906;10.908;2022-07-29T07:46:32;22.90;77.70
1994;DHT22;998;49.906;10.908;2022-07-29T07:49:27;23.00;79.00
1994;DHT22;998;49.906;10.908;2022-07-29T07:53:06;23.10;78.90
1994;DHT22;998;49.906;10.908;2022-07-29T07:55:50;23.10;78.80
1994;DHT22;998;49.906;10.908;2022-07-29T08:09:03;23.30;79.10
1994;DHT22;998;49.906;10.908;2022-07-29T08:28:40;23.80;81.10
1994;DHT22;998;49.906;10.908;2022-07-29T08:32:00;23.90;80.20
1994;DHT22;998;49.906;10.908;2022-07-29T08:38:10;23.90;80.00
1994;DHT22;998;49.906;10.908;2022-07-29T08:41:08;24.00;81.00
1994;DHT22;998;49.906;10.908;2022-07-29T08:44:45;24.10;81.10
1994;DHT22;998;49.906;10.908;2022-07-29T08:50:55;24.10;80.80
1994;DHT22;998;49.906;10.908;2022-07-29T08:54:10;24.20;81.20
1994;DHT22;998;49.906;10.908;2022-07-29T09:07:29;24.90;80.50
1994;DHT22;998;49.906;10.908;2022-07-29T09:11:59;25.10;80.50
1994;DHT22;998;49.906;10.908;2022-07-29T09:17:16;24.90;81.10
1994;DHT22;998;49.906;10.908;2022-07-29T09:24:19;24.90;81.20
1994;DHT22;998;49.906;10.908;2022-07-29T09:34:16;25.30;81.40
1994;DHT22;998;49.906;10.908;2022-07-29T09:47:40;25.40;80.90
1994;DHT22;998;49.906;10.908;2022-07-29T09:50:33;25.50;80.50
1994;DHT22;998;49.906;10.908;2022-07-29T10:04:09;25.40;81.70
1994;DHT22;998;49.906;10.908;2022-07-29T10:07:20;25.60;82.80
1994;DHT22;998;49.906;10.908;2022-07-29T10:10:37;26.00;81.80
1994;DHT22;998;49.906;10.908;2022-07-29T10:13:18;26.20;80.90
1994;DHT22;998;49.906;10.908;2022-07-29T10:15:48;26.30;81.10
1994;DHT22;998;49.906;10.908;2022-07-29T10:21:18;26.10;79.30
1994;DHT22;998;49.906;10.908;2022-07-29T10:23:45;26.00;79.80
1994;DHT22;998;49.906;10.908;2022-07-29T10:26:13;26.00;78.90
1994;DHT22;998;49.906;10.908;2022-07-29T10:28:44;26.00;78.80
1994;DHT22;998;49.906;10.908;2022-07-29T10:31:28;26.00;78.40
1994;DHT22;998;49.906;10.908;2022-07-29T10:34:04;26.10;78.50
1994;DHT22;998;49.906;10.908;2022-07-29T10:36:47;26.10;78.50
1994;DHT22;998;49.906;10.908;2022-07-29T10:39:26;26.10;78.70
1994;DHT22;998;49.906;10.908;2022-07-29T10:42:06;26.20;78.90
1994;DHT22;998;49.906;10.908;2022-07-29T10:44:40;26.20;78.70
1994;DHT22;998;49.906;10.908;2022-07-29T10:47:17;26.30;79.00
1994;DHT22;998;49.906;10.908;2022-07-29T10:49:56;26.20;79.20
1994;DHT22;998;49.906;10.908;2022-07-29T10:52:54;26.20;79.40
1994;DHT22;998;49.906;10.908;2022-07-29T10:55:36;26.10;81.20
1994;DHT22;998;49.906;10.908;2022-07-29T10:58:15;25.80;83.00
1994;DHT22;998;49.906;10.908;2022-07-29T11:00:47;25.80;83.00
1994;DHT22;998;49.906;10.908;2022-07-29T11:03:44;25.70;83.60
1994;DHT22;998;49.906;10.908;2022-07-29T11:06:15;25.70;84.50
1994;DHT22;998;49.906;10.908;2022-07-29T11:08:45;25.80;85.00
1994;DHT22;998;49.906;10.908;2022-07-29T11:11:36;25.90;85.80
1994;DHT22;998;49.906;10.908;2022-07-29T11:14:06;25.90;87.30
1994;DHT22;998;49.906;10.908;2022-07-29T11:16:59;25.90;88.30
1994;DHT22;998;49.906;10.908;2022-07-29T11:19:28;25.90;88.70
1994;DHT22;998;49.906;10.908;2022-07-29T11:21:55;25.80;88.90
1994;DHT22;998;49.906;10.908;2022-07-29T11:24:25;25.80;89.80
1994;DHT22;998;49.906;10.908;2022-07-29T11:27:11;26.00;89.80
1994;DHT22;998;49.906;10.908;2022-07-29T11:29:40;26.20;89.00
1994;DHT22;998;49.906;10.908;2022-07-29T11:32:17;26.20;88.30
1994;DHT22;998;49.906;10.908;2022-07-29T11:34:47;26.20;88.70
1994;DHT22;998;49.906;10.908;2022-07-29T11:37:18;26.00;89.90
1994;DHT22;998;49.906;10.908;2022-07-29T11:40:08;26.10;90.30
1994;DHT22;998;49.906;10.908;2022-07-29T11:42:53;26.50;90.30
1994;DHT22;998;49.906;10.908;2022-07-29T11:45:25;26.80;89.80
1994;DHT22;998;49.906;10.908;2022-07-29T11:47:59;26.90;89.20
1994;DHT22;998;49.906;10.908;2022-07-29T11:50:37;27.10;88.10
1994;DHT22;998;49.906;10.908;2022-07-29T11:53:11;27.30;87.40
1994;DHT22;998;49.906;10.908;2022-07-29T11:55:43;27.50;86.00
1994;DHT22;998;49.906;10.908;2022-07-29T11:58:10;27.60;84.80
1994;DHT22;998;49.906;10.908;2022-07-29T12:00:39;27.90;83.70
1994;DHT22;998;49.906;10.908;2022-07-29T12:03:07;28.00;83.10
1994;DHT22;998;49.906;10.908;2022-07-29T12:05:37;28.20;82.20
1994;DHT22;998;49.906;10.908;2022-07-29T12:08:06;28.40;80.70
1994;DHT22;998;49.906;10.908;2022-07-29T12:10:33;28.40;80.60
1994;DHT22;998;49.906;10.908;2022-07-29T12:13:05;28.40;79.70
1994;DHT22;998;49.906;10.908;2022-07-29T12:15:33;28.60;79.60
1994;DHT22;998;49.906;10.908;2022-07-29T12:18:15;29.00;79.20
1994;DHT22;998;49.906;10.908;2022-07-29T12:20:44;29.10;77.10
1994;DHT22;998;49.906;10.908;2022-07-29T12:23:11;29.20;76.50
1994;DHT22;998;49.906;10.908;2022-07-29T12:25:42;29.50;77.10
1994;DHT22;998;49.906;10.908;2022-07-29T12:28:11;29.80;76.20
1994;DHT22;998;49.906;10.908;2022-07-29T12:30:43;30.10;75.20
1994;DHT22;998;49.906;10.908;2022-07-29T12:33:12;30.30;74.50
1994;DHT22;998;49.906;10.908;2022-07-29T12:35:39;30.60;74.00
1994;DHT22;998;49.906;10.908;2022-07-29T12:38:08;30.80;73.00
1994;DHT22;998;49.906;10.908;2022-07-29T12:40:36;31.00;71.70
1994;DHT22;998;49.906;10.908;2022-07-29T12:43:12;31.10;72.00
1994;DHT22;998;49.906;10.908;2022-07-29T12:45:41;31.10;71.20
1994;DHT22;998;49.906;10.908;2022-07-29T12:48:10;31.00;70.50
1994;DHT22;998;49.906;10.908;2022-07-29T12:50:53;31.30;71.80
1994;DHT22;998;49.906;10.908;2022-07-29T12:53:21;31.90;69.50
1994;DHT22;998;49.906;10.908;2022-07-29T12:55:50;32.00;69.30
1994;DHT22;998;49.906;10.908;2022-07-29T12:58:29;31.90;67.70
1994;DHT22;998;49.906;10.908;2022-07-29T13:01:05;32.10;67.50
1994;DHT22;998;49.906;10.908;2022-07-29T13:03:49;32.10;67.20
1994;DHT22;998;49.906;10.908;2022-07-29T13:06:30;32.10;66.80
1994;DHT22;998;49.906;10.908;2022-07-29T13:09:02;32.10;66.70
1994;DHT22;998;49.906;10.908;2022-07-29T13:11:30;32.30;66.10
1994;DHT22;998;49.906;10.908;2022-07-29T13:13:58;32.60;66.00
1994;DHT22;998;49.906;10.908;2022-07-29T13:16:25;32.60;65.10
1994;DHT22;998;49.906;10.908;2022-07-29T13:19:07;32.50;65.00
1994;DHT22;998;49.906;10.908;2022-07-29T13:21:35;32.90;65.10
1994;DHT22;998;49.906;10.908;2022-07-29T13:24:02;33.10;64.50
1994;DHT22;998;49.906;10.908;2022-07-29T13:26:29;33.50;63.80
1994;DHT22;998;49.906;10.908;2022-07-29T13:28:55;33.70;62.80
1994;DHT22;998;49.906;10.908;2022-07-29T13:31:24;33.60;62.60
1994;DHT22;998;49.906;10.908;2022-07-29T13:33:50;33.80;62.70
1994;DHT22;998;49.906;10.908;2022-07-29T13:36:17;34.00;62.60
1994;DHT22;998;49.906;10.908;2022-07-29T13:38:44;33.80;62.60
1994;DHT22;998;49.906;10.908;2022-07-29T13:41:11;33.80;62.40
1994;DHT22;998;49.906;10.908;2022-07-29T13:43:38;33.40;63.90
1994;DHT22;998;49.906;10.908;2022-07-29T13:46:05;33.10;64.30
1994;DHT22;998;49.906;10.908;2022-07-29T13:48:33;32.50;67.00
1994;DHT22;998;49.906;10.908;2022-07-29T13:51:00;31.70;69.20
1994;DHT22;998;49.906;10.908;2022-07-29T13:53:27;31.40;70.20
1994;DHT22;998;49.906;10.908;2022-07-29T13:55:54;31.40;71.00
1994;DHT22;998;49.906;10.908;2022-07-29T13:58:21;31.50;69.90
1994;DHT22;998;49.906;10.908;2022-07-29T14:00:48;31.30;71.00
1994;DHT22;998;49.906;10.908;2022-07-29T14:03:15;31.10;70.60
1994;DHT22;998;49.906;10.908;2022-07-29T14:05:43;30.80;71.80
1994;DHT22;998;49.906;10.908;2022-07-29T14:08:10;30.40;72.50
1994;DHT22;998;49.906;10.908;2022-07-29T14:10:37;30.20;73.10
1994;DHT22;998;49.906;10.908;2022-07-29T14:13:04;30.20;73.40
1994;DHT22;998;49.906;10.908;2022-07-29T14:15:31;30.10;73.70
1994;DHT22;998;49.906;10.908;2022-07-29T14:17:58;30.20;73.40
1994;DHT22;998;49.906;10.908;2022-07-29T14:20:25;30.30;73.00
1994;DHT22;998;49.906;10.908;2022-07-29T14:22:53;30.40;72.80
1994;DHT22;998;49.906;10.908;2022-07-29T14:25:20;30.60;71.90
1994;DHT22;998;49.906;10.908;2022-07-29T14:27:47;30.70;71.80
1994;DHT22;998;49.906;10.908;2022-07-29T14:30:14;30.60;72.20
1994;DHT22;998;49.906;10.908;2022-07-29T14:32:41;30.40;73.00
1994;DHT22;998;49.906;10.908;2022-07-29T14:35:08;30.30;73.70
1994;DHT22;998;49.906;10.908;2022-07-29T14:37:36;30.10;74.60
1994;DHT22;998;49.906;10.908;2022-07-29T14:40:05;30.00;75.30
1994;DHT22;998;49.906;10.908;2022-07-29T14:42:32;29.70;77.00
1994;DHT22;998;49.906;10.908;2022-07-29T14:44:59;29.50;78.70
1994;DHT22;998;49.906;10.908;2022-07-29T14:47:26;29.60;79.20
1994;DHT22;998;49.906;10.908;2022-07-29T14:49:53;29.40;79.70
1994;DHT22;998;49.906;10.908;2022-07-29T14:52:20;29.50;78.60
1994;DHT22;998;49.906;10.908;2022-07-29T14:54:47;29.50;77.90
1994;DHT22;998;49.906;10.908;2022-07-29T14:57:16;29.00;79.60
1994;DHT22;998;49.906;10.908;2022-07-29T14:59:45;28.70;81.30
1994;DHT22;998;49.906;10.908;2022-07-29T15:02:12;28.40;84.10
1994;DHT22;998;49.906;10.908;2022-07-29T15:04:39;28.30;85.30
1994;DHT22;998;49.906;10.908;2022-07-29T15:07:06;28.20;85.10
1994;DHT22;998;49.906;10.908;2022-07-29T15:09:34;27.90;83.10
1994;DHT22;998;49.906;10.908;2022-07-29T15:12:01;27.90;82.70
1994;DHT22;998;49.906;10.908;2022-07-29T15:14:31;27.80;84.10
1994;DHT22;998;49.906;10.908;2022-07-29T15:16:59;27.30;87.40
1994;DHT22;998;49.906;10.908;2022-07-29T15:19:26;26.70;90.80
1994;DHT22;998;49.906;10.908;2022-07-29T15:21:53;26.70;91.20
1994;DHT22;998;49.906;10.908;2022-07-29T15:24:20;25.30;94.00
1994;DHT22;998;49.906;10.908;2022-07-29T15:26:47;25.40;94.90
1994;DHT22;998;49.906;10.908;2022-07-29T15:29:15;25.20;94.90
1994;DHT22;998;49.906;10.908;2022-07-29T15:31:44;25.10;94.30
1994;DHT22;998;49.906;10.908;2022-07-29T15:34:11;25.40;94.40
1994;DHT22;998;49.906;10.908;2022-07-29T15:36:39;25.20;94.60
1994;DHT22;998;49.906;10.908;2022-07-29T15:39:06;25.10;95.40
1994;DHT22;998;49.906;10.908;2022-07-29T15:41:34;25.00;96.60
1994;DHT22;998;49.906;10.908;2022-07-29T15:44:02;25.10;96.70
1994;DHT22;998;49.906;10.908;2022-07-29T15:46:29;25.20;97.10
1994;DHT22;998;49.906;10.908;2022-07-29T15:49:15;24.40;99.90
1994;DHT22;998;49.906;10.908;2022-07-29T15:51:42;23.50;99.90
1994;DHT22;998;49.906;10.908;2022-07-29T15:54:08;23.20;99.90
1994;DHT22;998;49.906;10.908;2022-07-29T15:56:35;23.30;99.90
1994;DHT22;998;49.906;10.908;2022-07-29T15:59:03;23.30;99.90
1994;DHT22;998;49.906;10.908;2022-07-29T16:01:30;23.10;99.90
1994;DHT22;998;49.906;10.908;2022-07-29T16:03:57;23.70;99.90
1994;DHT22;998;49.906;10.908;2022-07-29T16:06:25;23.70;99.90
1994;DHT22;998;49.906;10.908;2022-07-29T16:08:52;23.60;99.90
1994;DHT22;998;49.906;10.908;2022-07-29T16:11:20;22.90;99.90
1994;DHT22;998;49.906;10.908;2022-07-29T16:13:47;22.60;99.90
1994;DHT22;998;49.906;10.908;2022-07-29T16:16:14;22.60;99.90
1994;DHT22;998;49.906;10.908;2022-07-29T16:18:42;22.70;99.90
1994;DHT22;998;49.906;10.908;2022-07-29T16:21:09;22.90;99.90
1994;DHT22;998;49.906;10.908;2022-07-29T16:23:38;23.00;99.90
1994;DHT22;998;49.906;10.908;2022-07-29T16:26:05;22.90;99.90
1994;DHT22;998;49.906;10.908;2022-07-29T16:28:32;22.90;99.90
1994;DHT22;998;49.906;10.908;2022-07-29T16:30:58;22.80;99.90
1994;DHT22;998;49.906;10.908;2022-07-29T16:33:25;22.90;99.90
1994;DHT22;998;49.906;10.908;2022-07-29T16:35:52;22.90;99.90
1994;DHT22;998;49.906;10.908;2022-07-29T16:38:19;23.10;99.90
1994;DHT22;998;49.906;10.908;2022-07-29T16:40:47;23.10;99.90
1994;DHT22;998;49.906;10.908;2022-07-29T16:43:14;23.20;99.90
1994;DHT22;998;49.906;10.908;2022-07-29T16:45:41;23.20;99.90
1994;DHT22;998;49.906;10.908;2022-07-29T16:48:08;23.30;99.90
1994;DHT22;998;49.906;10.908;2022-07-29T16:50:35;23.10;99.90
1994;DHT22;998;49.906;10.908;2022-07-29T16:53:03;23.00;99.90
1994;DHT22;998;49.906;10.908;2022-07-29T16:55:30;23.40;99.90
1994;DHT22;998;49.906;10.908;2022-07-29T16:57:58;23.40;99.90
1994;DHT22;998;49.906;10.908;2022-07-29T17:00:25;23.60;99.90
1994;DHT22;998;49.906;10.908;2022-07-29T17:02:52;23.40;99.90
1994;DHT22;998;49.906;10.908;2022-07-29T17:05:19;23.30;99.90
1994;DHT22;998;49.906;10.908;2022-07-29T17:07:46;23.40;99.90
1994;DHT22;998;49.906;10.908;2022-07-29T17:10:14;23.60;99.90
1994;DHT22;998;49.906;10.908;2022-07-29T17:12:41;23.70;99.90
1994;DHT22;998;49.906;10.908;2022-07-29T17:15:10;23.60;99.90
1994;DHT22;998;49.906;10.908;2022-07-29T17:17:38;23.50;99.90
1994;DHT22;998;49.906;10.908;2022-07-29T17:20:06;23.70;99.90
1994;DHT22;998;49.906;10.908;2022-07-29T17:22:33;23.60;99.90
1994;DHT22;998;49.906;10.908;2022-07-29T17:25:00;23.60;99.90
1994;DHT22;998;49.906;10.908;2022-07-29T17:27:27;23.70;99.90
1994;DHT22;998;49.906;10.908;2022-07-29T17:29:54;23.80;99.90
1994;DHT22;998;49.906;10.908;2022-07-29T17:32:22;23.80;99.90
1994;DHT22;998;49.906;10.908;2022-07-29T17:34:49;23.70;99.90
1994;DHT22;998;49.906;10.908;2022-07-29T17:37:16;23.60;99.90
1994;DHT22;998;49.906;10.908;2022-07-29T17:39:43;23.60;99.90
1994;DHT22;998;49.906;10.908;2022-07-29T17:42:12;23.40;99.90
1994;DHT22;998;49.906;10.908;2022-07-29T17:44:39;23.40;99.90
1994;DHT22;998;49.906;10.908;2022-07-29T17:47:06;23.40;99.90
1994;DHT22;998;49.906;10.908;2022-07-29T17:49:35;22.80;99.90
1994;DHT22;998;49.906;10.908;2022-07-29T17:52:02;23.10;99.90
1994;DHT22;998;49.906;10.908;2022-07-29T17:54:29;23.20;99.90
1994;DHT22;998;49.906;10.908;2022-07-29T17:56:57;23.10;99.90
1994;DHT22;998;49.906;10.908;2022-07-29T17:59:24;23.00;99.90
1994;DHT22;998;49.906;10.908;2022-07-29T18:01:51;23.10;99.90
1994;DHT22;998;49.906;10.908;2022-07-29T18:04:19;23.10;99.90
1994;DHT22;998;49.906;10.908;2022-07-29T18:06:49;22.60;99.90
1994;DHT22;998;49.906;10.908;2022-07-29T18:09:16;22.50;99.90
1994;DHT22;998;49.906;10.908;2022-07-29T18:11:43;22.50;99.90
1994;DHT22;998;49.906;10.908;2022-07-29T18:14:11;22.40;99.90
1994;DHT22;998;49.906;10.908;2022-07-29T18:16:38;22.10;99.90
1994;DHT22;998;49.906;10.908;2022-07-29T18:19:05;22.50;99.90
1994;DHT22;998;49.906;10.908;2022-07-29T18:21:32;22.80;99.90
1994;DHT22;998;49.906;10.908;2022-07-29T18:24:01;22.90;99.90
1994;DHT22;998;49.906;10.908;2022-07-29T18:26:27;23.10;99.90
1994;DHT22;998;49.906;10.908;2022-07-29T18:28:54;23.00;99.90
1994;DHT22;998;49.906;10.908;2022-07-29T18:31:21;23.00;99.90
1994;DHT22;998;49.906;10.908;2022-07-29T18:33:48;23.00;99.90
1994;DHT22;998;49.906;10.908;2022-07-29T18:36:15;23.10;99.90
1994;DHT22;998;49.906;10.908;2022-07-29T18:38:42;23.10;99.90
1994;DHT22;998;49.906;10.908;2022-07-29T18:41:10;23.00;99.90
1994;DHT22;998;49.906;10.908;2022-07-29T18:43:37;23.10;99.90
1994;DHT22;998;49.906;10.908;2022-07-29T18:46:04;23.10;99.90
1994;DHT22;998;49.906;10.908;2022-07-29T18:48:31;23.10;99.90
1994;DHT22;998;49.906;10.908;2022-07-29T18:50:58;23.20;99.90
1994;DHT22;998;49.906;10.908;2022-07-29T18:53:25;23.10;99.90
1994;DHT22;998;49.906;10.908;2022-07-29T18:55:52;23.20;99.90
1994;DHT22;998;49.906;10.908;2022-07-29T18:58:20;23.30;99.90
1994;DHT22;998;49.906;10.908;2022-07-29T19:00:47;23.30;99.90
1994;DHT22;998;49.906;10.908;2022-07-29T19:03:14;23.20;99.90
1994;DHT22;998;49.906;10.908;2022-07-29T19:05:41;23.30;99.90
1994;DHT22;998;49.906;10.908;2022-07-29T19:08:08;23.10;99.90
1994;DHT22;998;49.906;10.908;2022-07-29T19:10:35;23.10;99.90
1994;DHT22;998;49.906;10.908;2022-07-29T19:13:02;23.00;99.90
1994;DHT22;998;49.906;10.908;2022-07-29T19:15:30;23.10;99.90
1994;DHT22;998;49.906;10.908;2022-07-29T19:17:57;23.00;99.90
1994;DHT22;998;49.906;10.908;2022-07-29T19:20:24;22.90;99.90
1994;DHT22;998;49.906;10.908;2022-07-29T19:22:51;22.90;99.90
1994;DHT22;998;49.906;10.908;2022-07-29T19:25:18;23.00;99.90
1994;DHT22;998;49.906;10.908;2022-07-29T19:27:45;23.00;99.90
1994;DHT22;998;49.906;10.908;2022-07-29T19:30:12;23.10;99.90
1994;DHT22;998;49.906;10.908;2022-07-29T19:32:40;23.00;99.90
1994;DHT22;998;49.906;10.908;2022-07-29T19:35:07;23.00;99.90
1994;DHT22;998;49.906;10.908;2022-07-29T19:37:49;23.00;99.90
1994;DHT22;998;49.906;10.908;2022-07-29T19:40:16;23.10;99.90
1994;DHT22;998;49.906;10.908;2022-07-29T19:42:43;23.10;99.90
1994;DHT22;998;49.906;10.908;2022-07-29T19:45:10;23.00;99.90
1994;DHT22;998;49.906;10.908;2022-07-29T19:47:37;23.10;99.90
1994;DHT22;998;49.906;10.908;2022-07-29T19:50:07;23.10;99.90
1994;DHT22;998;49.906;10.908;2022-07-29T19:52:34;23.10;99.90
1994;DHT22;998;49.906;10.908;2022-07-29T19:55:04;23.10;99.90
1994;DHT22;998;49.906;10.908;2022-07-29T19:57:31;23.00;99.90
1994;DHT22;998;49.906;10.908;2022-07-29T19:59:58;23.00;99.90
1994;DHT22;998;49.906;10.908;2022-07-29T20:02:25;22.90;99.90